createdAt,value
2019-03-17T00:00:05.229Z,99586.88
2019-03-17T00:02:42.723Z,99590.55
2019-03-17T00:05:21.263Z,99585.09
2019-03-17T00:08:13.781Z,99572.50
2019-03-17T00:10:52.606Z,99568.60
2019-03-17T00:13:45.335Z,99543.55
2019-03-17T00:16:22.704Z,99537.02
2019-03-17T00:18:58.609Z,99535.66
2019-03-17T00:21:34.048Z,99532.77
2019-03-17T00:24:13.158Z,99537.02
2019-03-17T00:26:50.005Z,99529.64
2019-03-17T00:29:25.056Z,99529.10
2019-03-17T00:32:01.604Z,99531.69
2019-03-17T00:34:44.164Z,99520.91
2019-03-17T00:37:13.186Z,99523.31
2019-03-17T00:39:49.025Z,99525.47
2019-03-17T00:42:31.262Z,99506.56
2019-03-17T00:45:07.623Z,99507.59
2019-03-17T00:47:42.592Z,99511.58
2019-03-17T00:50:18.529Z,99495.32
2019-03-17T00:52:54.537Z,99493.96
2019-03-17T00:55:29.502Z,99488.45
2019-03-17T00:58:04.659Z,99478.89
2019-03-17T01:00:39.687Z,99466.84
2019-03-17T01:03:16.415Z,99465.81
2019-03-17T01:05:51.472Z,99462.23
2019-03-17T01:08:26.369Z,99481.84
2019-03-17T01:11:01.477Z,99457.30
2019-03-17T01:13:37.229Z,99447.07
2019-03-17T01:16:12.106Z,99447.70
2019-03-17T01:18:48.567Z,99443.67
2019-03-17T01:21:23.465Z,99444.48
2019-03-17T01:23:58.360Z,99438.01
2019-03-17T01:26:33.283Z,99437.92
2019-03-17T01:29:09.237Z,99441.05
2019-03-17T01:31:45.028Z,99427.19
2019-03-17T01:34:20.030Z,99428.23
2019-03-17T01:36:55.037Z,99433.27
2019-03-17T01:39:29.934Z,99413.23
2019-03-17T01:42:04.936Z,99414.06
2019-03-17T01:44:39.781Z,99412.64
2019-03-17T01:47:14.759Z,99404.22
2019-03-17T01:49:51.419Z,99405.49
2019-03-17T01:52:27.448Z,99406.09
2019-03-17T01:55:02.363Z,99399.15
2019-03-17T01:57:37.497Z,99414.28
2019-03-17T02:00:13.414Z,99396.73
2019-03-17T02:02:48.426Z,99407.25
2019-03-17T02:05:24.407Z,99413.52
2019-03-17T02:08:00.277Z,99393.11
2019-03-17T02:10:35.187Z,99392.96
2019-03-17T02:13:10.185Z,99392.77
2019-03-17T02:15:46.347Z,99387.02
2019-03-17T02:18:21.295Z,99381.23
2019-03-17T02:20:57.590Z,99384.94
2019-03-17T02:23:33.325Z,99375.80
2019-03-17T02:26:08.447Z,99377.31
2019-03-17T02:28:43.379Z,99359.22
2019-03-17T02:31:18.320Z,99355.01
2019-03-17T02:33:53.221Z,99353.97
2019-03-17T02:36:28.135Z,99349.19
2019-03-17T02:39:03.328Z,99352.61
2019-03-17T02:41:38.227Z,99346.25
2019-03-17T02:44:13.102Z,99345.71
2019-03-17T02:46:48.051Z,99340.14
2019-03-17T02:49:23.900Z,99335.40
2019-03-17T02:51:59.952Z,99334.58
2019-03-17T02:54:35.762Z,99331.64
2019-03-17T02:57:19.099Z,99341.09
2019-03-17T02:59:54.906Z,99323.41
2019-03-17T03:02:29.802Z,99319.51
2019-03-17T03:05:05.242Z,99313.45
2019-03-17T03:07:40.540Z,99313.35
2019-03-17T03:10:15.361Z,99317.05
2019-03-17T03:12:51.445Z,99307.61
2019-03-17T03:15:26.937Z,99307.05
2019-03-17T03:18:02.669Z,99295.25
2019-03-17T03:20:37.488Z,99311.21
2019-03-17T03:23:18.233Z,99304.77
2019-03-17T03:25:53.325Z,99306.56
2019-03-17T03:28:28.208Z,99308.37
2019-03-17T03:31:03.979Z,99304.27
2019-03-17T03:33:38.918Z,99295.89
2019-03-17T03:36:14.753Z,99295.17
2019-03-17T03:38:50.494Z,99298.07
2019-03-17T03:41:25.294Z,99294.09
2019-03-17T03:44:01.073Z,99291.56
2019-03-17T03:46:41.222Z,99295.33
2019-03-17T03:49:16.986Z,99284.06
2019-03-17T03:51:52.791Z,99286.23
2019-03-17T03:54:30.516Z,99289.36
2019-03-17T03:57:14.652Z,99298.27
2019-03-17T03:59:49.522Z,99283.84
2019-03-17T04:02:26.220Z,99283.70
2019-03-17T04:05:01.964Z,99277.06
2019-03-17T04:07:37.992Z,99282.89
2019-03-17T04:10:14.433Z,99277.96
2019-03-17T04:12:49.380Z,99278.19
2019-03-17T04:15:24.414Z,99281.89
2019-03-17T04:18:19.814Z,99265.89
2019-03-17T04:20:55.308Z,99267.44
2019-03-17T04:23:44.542Z,99269.25
2019-03-17T04:26:21.883Z,99270.60
2019-03-17T04:28:57.156Z,99273.95
2019-03-17T04:31:34.786Z,99277.37
2019-03-17T04:34:09.834Z,99278.45
2019-03-17T04:36:44.717Z,99267.70
2019-03-17T04:39:20.440Z,99275.65
2019-03-17T04:41:55.374Z,99279.12
2019-03-17T04:44:31.117Z,99278.38
2019-03-17T04:47:07.300Z,99285.51
2019-03-17T04:49:44.538Z,99283.16
2019-03-17T04:52:19.424Z,99279.03
2019-03-17T04:55:00.418Z,99263.55
2019-03-17T04:57:36.227Z,99281.14
2019-03-17T05:00:11.224Z,99281.98
2019-03-17T05:02:46.061Z,99281.98
2019-03-17T05:05:20.933Z,99282.08
2019-03-17T05:07:56.704Z,99283.44
2019-03-17T05:10:32.424Z,99280.58
2019-03-17T05:13:07.295Z,99286.89
2019-03-17T05:15:44.250Z,99271.72
2019-03-17T05:18:55.718Z,99283.52
2019-03-17T05:21:30.611Z,99309.48
2019-03-17T05:24:06.354Z,99371.42
2019-03-17T05:26:42.310Z,99369.07
2019-03-17T05:29:17.305Z,99369.05
2019-03-17T05:35:54.242Z,99400.08
2019-03-17T05:41:36.801Z,99423.91
2019-03-17T05:44:12.556Z,99419.41
2019-03-17T05:51:36.602Z,99430.87
2019-03-17T05:58:21.826Z,99424.00
2019-03-17T06:00:57.533Z,99430.45
2019-03-17T06:03:54.156Z,99448.69
2019-03-17T06:06:29.012Z,99457.20
2019-03-17T06:17:34.957Z,99493.73
2019-03-17T06:36:43.813Z,99489.70
2019-03-17T06:39:56.986Z,99500.95
2019-03-17T06:42:33.067Z,99504.86
2019-03-17T06:45:12.116Z,99508.86
2019-03-17T06:47:47.044Z,99510.44
2019-03-17T06:54:11.437Z,99510.52
2019-03-17T07:01:09.810Z,99520.78
2019-03-17T07:03:48.602Z,99533.47
2019-03-17T07:06:23.622Z,99523.56
2019-03-17T07:08:59.073Z,99526.45
2019-03-17T07:11:34.088Z,99516.30
2019-03-17T07:14:09.862Z,99529.38
2019-03-17T07:16:45.574Z,99543.20
2019-03-17T07:19:20.642Z,99543.69
2019-03-17T07:21:56.360Z,99544.50
2019-03-17T07:24:32.180Z,99540.80
2019-03-17T07:27:09.040Z,99554.13
2019-03-17T07:29:44.328Z,99562.00
2019-03-17T07:32:20.852Z,99575.61
2019-03-17T07:34:56.121Z,99573.81
2019-03-17T07:37:31.251Z,99588.73
2019-03-17T07:40:06.245Z,99591.02
2019-03-17T07:42:41.964Z,99592.30
2019-03-17T07:45:17.734Z,99608.23
2019-03-17T07:52:59.144Z,99613.69
2019-03-17T07:55:35.440Z,99624.87
2019-03-17T07:58:10.681Z,99618.05
2019-03-17T08:00:45.896Z,99627.88
2019-03-17T08:03:22.432Z,99632.81
2019-03-17T08:05:58.526Z,99624.98
2019-03-17T08:09:31.653Z,99641.22
2019-03-17T08:12:22.609Z,99646.92
2019-03-17T08:15:27.004Z,99656.67
2019-03-17T08:21:16.770Z,99676.41
2019-03-17T08:23:54.979Z,99672.29
2019-03-17T08:26:30.795Z,99673.11
2019-03-17T08:29:05.598Z,99684.91
2019-03-17T08:38:52.580Z,99696.09
2019-03-17T08:45:46.664Z,99705.45
2019-03-17T08:48:35.528Z,99705.09
2019-03-17T08:51:31.397Z,99712.16
2019-03-17T08:54:12.686Z,99702.98
2019-03-17T08:57:17.221Z,99711.05
2019-03-17T08:59:52.590Z,99713.46
2019-03-17T09:02:32.375Z,99723.66
2019-03-17T09:05:08.747Z,99724.77
2019-03-17T09:07:44.756Z,99723.30
2019-03-17T09:10:20.942Z,99721.91
2019-03-17T09:12:57.032Z,99733.05
2019-03-17T09:15:33.128Z,99729.78
2019-03-17T09:18:10.870Z,99727.22
2019-03-17T09:20:47.032Z,99718.10
2019-03-17T09:23:22.436Z,99730.19
2019-03-17T09:25:58.526Z,99730.05
2019-03-17T09:28:37.059Z,99739.00
2019-03-17T09:31:12.142Z,99729.09
2019-03-17T09:33:48.218Z,99731.41
2019-03-17T09:36:23.668Z,99735.34
2019-03-17T09:38:58.546Z,99742.11
2019-03-17T09:41:33.712Z,99742.13
2019-03-17T09:44:08.578Z,99751.55
2019-03-17T09:46:46.575Z,99759.39
2019-03-17T09:49:21.848Z,99747.16
2019-03-17T09:51:56.968Z,99748.49
2019-03-17T09:54:32.716Z,99745.59
2019-03-17T09:57:08.728Z,99746.91
2019-03-17T09:59:44.942Z,99750.58
2019-03-17T10:02:19.986Z,99753.70
2019-03-17T10:04:55.731Z,99755.77
2019-03-17T10:07:30.965Z,99764.42
2019-03-17T10:10:07.282Z,99754.73
2019-03-17T10:12:44.144Z,99759.39
2019-03-17T10:15:19.439Z,99755.95
2019-03-17T10:17:57.214Z,99758.88
2019-03-17T10:20:32.248Z,99755.83
2019-03-17T10:23:08.165Z,99755.81
2019-03-17T10:25:43.130Z,99763.93
2019-03-17T10:28:18.222Z,99767.05
2019-03-17T10:30:54.206Z,99770.70
2019-03-17T10:33:29.146Z,99785.16
2019-03-17T10:36:04.554Z,99818.09
2019-03-17T10:38:41.001Z,99807.37
2019-03-17T10:41:18.862Z,99806.33
2019-03-17T10:47:34.127Z,99807.22
2019-03-17T10:50:12.393Z,99811.94
2019-03-17T10:52:48.573Z,99805.66
2019-03-17T10:55:23.585Z,99815.08
2019-03-17T10:57:58.632Z,99828.16
2019-03-17T11:00:35.631Z,99830.94
2019-03-17T11:03:11.860Z,99835.95
2019-03-17T11:05:48.964Z,99852.30
2019-03-17T11:08:24.558Z,99840.25
2019-03-17T11:10:59.774Z,99838.10
2019-03-17T11:13:35.248Z,99839.39
2019-03-17T11:16:10.403Z,99852.11
2019-03-17T11:18:45.856Z,99844.91
2019-03-17T11:21:20.668Z,99854.86
2019-03-17T11:24:13.857Z,99849.89
2019-03-17T11:26:49.970Z,99850.02
2019-03-17T11:29:24.891Z,99856.81
2019-03-17T11:32:00.824Z,99852.11
2019-03-17T11:34:37.006Z,99858.97
2019-03-17T11:37:12.050Z,99861.45
2019-03-17T11:39:46.971Z,99862.11
2019-03-17T11:42:23.061Z,99865.92
2019-03-17T11:44:59.119Z,99863.55
2019-03-17T11:47:34.139Z,99869.27
2019-03-17T11:50:11.534Z,99865.02
2019-03-17T11:52:46.713Z,99860.29
2019-03-17T11:55:21.763Z,99861.58
2019-03-17T11:58:04.340Z,99871.16
2019-03-17T12:00:39.364Z,99868.09
2019-03-17T12:03:14.431Z,99869.70
2019-03-17T12:05:49.446Z,99878.47
2019-03-17T12:08:24.544Z,99870.91
2019-03-17T12:11:04.710Z,99885.06
2019-03-17T12:13:40.753Z,99886.92
2019-03-17T12:16:16.042Z,99891.59
2019-03-17T12:18:51.202Z,99893.41
2019-03-17T12:21:26.384Z,99901.41
2019-03-17T12:24:01.895Z,99912.39
2019-03-17T12:26:37.205Z,99914.17
2019-03-17T12:29:12.368Z,99921.81
2019-03-17T12:31:52.128Z,99929.58
2019-03-17T12:34:28.429Z,99927.80
2019-03-17T12:37:03.890Z,99926.20
2019-03-17T12:39:38.941Z,99922.57
2019-03-17T12:42:13.977Z,99920.47
2019-03-17T12:44:49.336Z,99915.23
2019-03-17T12:47:24.403Z,99921.77
2019-03-17T12:49:59.532Z,99921.28
2019-03-17T12:52:35.509Z,99928.61
2019-03-17T12:55:10.863Z,99921.80
2019-03-17T12:57:46.091Z,99918.81
2019-03-17T13:00:22.809Z,99924.16
2019-03-17T13:02:57.787Z,99914.39
2019-03-17T13:05:33.549Z,99919.06
2019-03-17T13:08:09.307Z,99926.20
2019-03-17T13:10:44.634Z,99929.55
2019-03-17T13:13:20.026Z,99930.73
2019-03-17T13:15:55.139Z,99943.41
2019-03-17T13:18:30.118Z,99954.36
2019-03-17T13:21:26.388Z,99971.99
2019-03-17T13:24:01.701Z,99959.42
2019-03-17T13:26:37.586Z,99968.31
2019-03-17T13:29:13.396Z,99974.57
2019-03-17T13:31:49.303Z,99984.88
2019-03-17T13:34:24.496Z,99992.30
2019-03-17T13:37:08.998Z,99991.18
2019-03-17T13:39:44.769Z,99982.00
2019-03-17T13:42:19.693Z,99970.86
2019-03-17T13:44:54.591Z,99982.12
2019-03-17T13:47:29.371Z,99985.02
2019-03-17T13:50:05.341Z,99983.54
2019-03-17T13:52:40.249Z,99982.83
2019-03-17T13:55:15.155Z,99972.82
2019-03-17T13:57:51.668Z,99981.52
2019-03-17T14:00:26.600Z,99983.14
2019-03-17T14:03:01.623Z,100002.21
2019-03-17T14:05:36.479Z,99993.22
2019-03-17T14:08:11.393Z,100011.42
2019-03-17T14:10:46.305Z,100013.24
2019-03-17T14:13:22.177Z,100015.72
2019-03-17T14:15:57.092Z,100020.55
2019-03-17T14:18:33.977Z,100003.88
2019-03-17T14:21:09.003Z,100019.26
2019-03-17T14:23:45.232Z,100033.52
2019-03-17T14:26:20.128Z,100041.88
2019-03-17T14:28:55.083Z,100036.05
2019-03-17T14:31:30.025Z,100033.11
2019-03-17T14:34:06.238Z,100036.18
2019-03-17T14:36:41.167Z,100051.14
2019-03-17T14:39:16.548Z,100062.72
2019-03-17T14:41:51.649Z,100059.92
2019-03-17T14:44:26.516Z,100075.07
2019-03-17T14:47:01.428Z,100066.75
2019-03-17T14:49:36.728Z,100067.30
2019-03-17T14:52:11.756Z,100067.09
2019-03-17T14:54:46.666Z,100075.99
2019-03-17T14:57:21.785Z,100085.95
2019-03-17T14:59:56.688Z,100068.52
2019-03-17T15:02:31.685Z,100072.87
2019-03-17T15:05:07.453Z,100077.23
2019-03-17T15:07:42.423Z,100064.77
2019-03-17T15:10:18.640Z,100072.47
2019-03-17T15:12:53.613Z,100089.77
2019-03-17T15:15:29.447Z,100091.05
2019-03-17T15:18:04.369Z,100088.99
2019-03-17T15:20:39.628Z,100096.84
2019-03-17T15:23:14.800Z,100102.17
2019-03-17T15:25:49.759Z,100115.45
2019-03-17T15:28:24.791Z,100104.55
2019-03-17T15:31:11.145Z,100109.85
2019-03-17T15:33:37.239Z,100116.92
2019-03-17T15:36:12.285Z,100108.90
2019-03-17T15:38:47.297Z,100115.25
2019-03-17T15:41:22.244Z,100114.98
2019-03-17T15:43:57.577Z,100116.81
2019-03-17T15:46:32.508Z,100130.47
2019-03-17T15:49:07.630Z,100133.36
2019-03-17T15:51:42.637Z,100131.78
2019-03-17T15:54:17.742Z,100135.22
2019-03-17T15:56:53.986Z,100140.41
2019-03-17T15:59:32.541Z,100150.17
2019-03-17T16:02:07.832Z,100142.82
2019-03-17T16:04:43.061Z,100158.59
2019-03-17T16:07:18.049Z,100157.48
2019-03-17T16:09:54.237Z,100157.94
2019-03-17T16:12:29.305Z,100184.25
2019-03-17T16:15:06.058Z,100177.78
2019-03-17T16:17:42.025Z,100179.50
2019-03-17T16:20:19.125Z,100203.88
2019-03-17T16:22:54.074Z,100198.86
2019-03-17T16:25:29.070Z,100198.52
2019-03-17T16:28:04.410Z,100195.44
2019-03-17T16:30:40.047Z,100194.02
2019-03-17T16:33:15.157Z,100193.05
2019-03-17T16:35:51.999Z,100204.45
2019-03-17T16:38:27.267Z,100207.52
2019-03-17T16:41:02.482Z,100210.48
2019-03-17T16:43:40.285Z,100213.84
2019-03-17T16:46:17.401Z,100214.88
2019-03-17T16:48:56.136Z,100229.27
2019-03-17T16:51:32.685Z,100234.36
2019-03-17T16:54:09.521Z,100251.23
2019-03-17T16:56:52.231Z,100248.69
2019-03-17T16:59:29.485Z,100245.93
2019-03-17T17:02:06.773Z,100245.54
2019-03-17T17:04:42.643Z,100257.59
2019-03-17T17:07:18.676Z,100266.22
2019-03-17T17:09:53.834Z,100266.95
2019-03-17T17:12:30.657Z,100264.81
2019-03-17T17:15:08.247Z,100261.97
2019-03-17T17:17:44.196Z,100276.03
2019-03-17T17:20:24.058Z,100278.78
2019-03-17T17:22:59.299Z,100273.27
2019-03-17T17:25:34.926Z,100282.09
2019-03-17T17:28:10.269Z,100286.06
2019-03-17T17:30:45.482Z,100286.11
2019-03-17T17:33:47.554Z,100288.87
2019-03-17T17:36:23.861Z,100295.83
2019-03-17T17:39:11.903Z,100298.88
2019-03-17T17:42:28.756Z,100297.57
2019-03-17T17:45:19.910Z,100297.48
2019-03-17T17:48:10.083Z,100305.55
2019-03-17T17:54:38.166Z,100317.16
2019-03-17T17:57:40.607Z,100316.95
2019-03-17T18:03:37.579Z,100326.48
2019-03-17T18:06:33.534Z,100332.42
2019-03-17T18:09:10.210Z,100336.45
2019-03-17T18:16:12.846Z,100338.33
2019-03-17T18:18:48.665Z,100356.05
2019-03-17T18:21:43.358Z,100343.31
2019-03-17T18:24:19.245Z,100353.92
2019-03-17T18:27:02.403Z,100356.11
2019-03-17T18:30:19.712Z,100368.41
2019-03-17T18:41:34.306Z,100372.61
2019-03-17T18:47:26.815Z,100378.46
2019-03-17T18:50:25.097Z,100374.89
2019-03-17T18:53:16.963Z,100380.13
2019-03-17T18:59:41.500Z,100383.06
2019-03-17T19:02:17.485Z,100390.42
2019-03-17T19:05:11.794Z,100392.98
2019-03-17T19:11:53.896Z,100389.94
2019-03-17T19:14:47.367Z,100396.26
2019-03-17T19:17:37.436Z,100401.81
2019-03-17T19:20:26.179Z,100396.90
2019-03-17T19:23:19.677Z,100403.63
2019-03-17T19:26:10.806Z,100409.20
2019-03-17T19:28:46.595Z,100404.33
2019-03-17T19:31:48.348Z,100416.42
2019-03-17T19:38:34.580Z,100419.30
2019-03-17T19:41:32.262Z,100415.91
2019-03-17T19:44:08.365Z,100417.64
2019-03-17T19:47:07.295Z,100417.64
2019-03-17T19:54:03.532Z,100414.86
2019-03-17T19:56:52.191Z,100413.73
2019-03-17T20:02:51.794Z,100408.05
2019-03-17T20:05:26.727Z,100409.52
2019-03-17T20:08:24.694Z,100414.77
2019-03-17T20:11:12.288Z,100414.91
2019-03-17T20:13:48.083Z,100419.47
2019-03-17T20:19:11.185Z,100420.63
2019-03-17T20:24:53.170Z,100428.23
2019-03-17T20:27:41.691Z,100427.66
2019-03-17T20:30:31.666Z,100431.13
2019-03-17T20:33:24.135Z,100440.13
2019-03-17T20:39:44.806Z,100432.44
2019-03-17T20:50:27.402Z,100443.47
2019-03-17T21:00:20.866Z,100443.87
2019-03-17T21:07:04.207Z,100459.55
2019-03-17T21:09:52.908Z,100455.22
2019-03-17T21:16:05.621Z,100451.45
2019-03-17T21:18:53.000Z,100452.32
2019-03-17T21:25:29.753Z,100467.80
2019-03-17T21:37:46.212Z,100455.30
2019-03-17T21:44:07.360Z,100454.73
2019-03-17T21:49:54.547Z,100464.55
2019-03-17T21:52:29.447Z,100448.49
2019-03-17T21:55:25.430Z,100458.39
2019-03-17T21:58:07.630Z,100452.56
2019-03-17T22:01:20.430Z,100464.98
2019-03-17T22:04:09.509Z,100456.68
2019-03-17T22:06:52.329Z,100462.38
2019-03-17T22:09:43.136Z,100470.11
2019-03-17T22:12:18.876Z,100463.95
2019-03-17T22:15:10.368Z,100480.28
2019-03-17T22:18:19.514Z,100472.06
2019-03-17T22:21:09.587Z,100468.39
2019-03-17T22:23:45.358Z,100475.28
2019-03-17T22:30:53.674Z,100473.03
2019-03-17T22:33:29.440Z,100490.72
2019-03-17T22:39:12.006Z,100473.07
2019-03-17T22:41:47.831Z,100491.88
2019-03-17T22:44:24.723Z,100487.50
2019-03-17T22:47:21.193Z,100490.92
2019-03-17T22:49:57.095Z,100495.78
2019-03-17T23:03:26.258Z,100498.66
2019-03-17T23:06:20.537Z,100491.49
2019-03-17T23:09:08.537Z,100496.75
2019-03-17T23:11:44.327Z,100495.53
2019-03-17T23:14:37.060Z,100485.59
2019-03-17T23:17:56.630Z,100494.20
2019-03-17T23:20:59.604Z,100501.45
2019-03-17T23:23:51.017Z,100509.70
2019-03-17T23:26:25.978Z,100510.11
2019-03-17T23:29:00.945Z,100501.00
2019-03-17T23:31:47.479Z,100515.19
2019-03-17T23:34:42.302Z,100523.31
2019-03-17T23:37:30.026Z,100512.75
2019-03-17T23:40:24.930Z,100537.75
2019-03-17T23:43:00.755Z,100538.47
2019-03-17T23:48:27.375Z,100538.63
2019-03-17T23:51:03.179Z,100541.08
2019-03-17T23:56:38.926Z,100552.05
2019-03-17T23:59:15.691Z,100551.84
